createdAt,value
2018-11-25T00:00:22.645Z,6.50
2018-11-25T00:02:51.249Z,6.50
2018-11-25T00:05:19.934Z,6.50
2018-11-25T00:07:48.663Z,6.50
2018-11-25T00:10:17.319Z,6.50
2018-11-25T00:12:46.011Z,6.50
2018-11-25T00:15:14.602Z,6.50
2018-11-25T00:17:43.592Z,6.40
2018-11-25T00:20:13.926Z,6.50
2018-11-25T00:22:43.042Z,6.50
2018-11-25T00:25:12.995Z,6.50
2018-11-25T00:27:42.059Z,6.50
2018-11-25T00:30:13.815Z,6.50
2018-11-25T00:32:42.470Z,6.50
2018-11-25T00:35:12.361Z,6.50
2018-11-25T00:37:48.003Z,6.50
2018-11-25T00:40:13.166Z,6.60
2018-11-25T00:42:42.005Z,6.70
2018-11-25T00:45:15.331Z,6.60
2018-11-25T00:47:44.127Z,6.60
2018-11-25T00:50:13.896Z,6.70
2018-11-25T00:52:42.504Z,6.80
2018-11-25T00:55:18.041Z,6.80
2018-11-25T00:57:46.674Z,6.80
2018-11-25T01:00:17.120Z,6.90
2018-11-25T01:02:46.487Z,6.80
2018-11-25T01:05:15.318Z,6.80
2018-11-25T01:07:44.109Z,6.70
2018-11-25T01:10:16.654Z,6.70
2018-11-25T01:12:45.777Z,6.70
2018-11-25T01:15:16.354Z,6.70
2018-11-25T01:17:45.221Z,6.60
2018-11-25T01:20:16.295Z,6.70
2018-11-25T01:22:45.052Z,6.70
2018-11-25T01:25:13.811Z,6.70
2018-11-25T01:27:42.561Z,6.70
2018-11-25T01:30:13.385Z,6.70
2018-11-25T01:32:42.212Z,6.80
2018-11-25T01:35:11.765Z,6.80
2018-11-25T01:37:40.844Z,6.90
2018-11-25T01:40:17.296Z,6.90
2018-11-25T01:42:46.048Z,6.90
2018-11-25T01:45:16.723Z,6.90
2018-11-25T01:47:45.701Z,7.00
2018-11-25T01:50:15.380Z,6.90
2018-11-25T01:52:43.903Z,7.00
2018-11-25T01:55:15.477Z,6.90
2018-11-25T01:57:44.092Z,6.90
2018-11-25T02:00:16.973Z,6.90
2018-11-25T02:02:45.581Z,7.00
2018-11-25T02:05:14.264Z,7.00
2018-11-25T02:07:42.893Z,7.00
2018-11-25T02:10:14.712Z,7.00
2018-11-25T02:12:43.591Z,7.10
2018-11-25T02:15:13.621Z,7.00
2018-11-25T02:17:42.264Z,7.00
2018-11-25T02:20:23.521Z,6.80
2018-11-25T02:22:53.427Z,6.70
2018-11-25T02:25:22.159Z,6.50
2018-11-25T02:27:50.884Z,6.30
2018-11-25T02:30:19.622Z,6.20
2018-11-25T02:32:48.297Z,6.20
2018-11-25T02:35:17.778Z,6.20
2018-11-25T02:37:46.391Z,6.10
2018-11-25T02:40:16.245Z,6.00
2018-11-25T02:42:51.640Z,5.90
2018-11-25T02:45:20.150Z,5.80
2018-11-25T02:47:48.679Z,5.80
2018-11-25T02:50:24.499Z,5.80
2018-11-25T02:52:53.692Z,5.80
2018-11-25T02:55:23.501Z,5.70
2018-11-25T02:57:52.396Z,5.70
2018-11-25T03:00:20.998Z,5.70
2018-11-25T03:02:49.843Z,5.90
2018-11-25T03:05:18.342Z,5.80
2018-11-25T03:07:47.063Z,5.90
2018-11-25T03:10:15.683Z,5.90
2018-11-25T03:12:44.460Z,5.90
2018-11-25T03:15:15.155Z,5.80
2018-11-25T03:17:44.003Z,5.80
2018-11-25T03:20:14.564Z,5.80
2018-11-25T03:22:43.387Z,5.70
2018-11-25T03:25:15.065Z,5.70
2018-11-25T03:27:43.731Z,5.60
2018-11-25T03:30:14.320Z,5.40
2018-11-25T03:32:43.316Z,5.30
2018-11-25T03:35:12.710Z,5.30
2018-11-25T03:37:41.202Z,5.30
2018-11-25T03:40:12.799Z,5.20
2018-11-25T03:42:41.361Z,5.30
2018-11-25T03:45:14.317Z,5.30
2018-11-25T03:47:42.933Z,5.30
2018-11-25T03:50:12.460Z,5.30
2018-11-25T03:52:41.035Z,5.30
2018-11-25T03:55:10.967Z,5.30
2018-11-25T03:57:39.639Z,5.30
2018-11-25T04:00:10.252Z,5.30
2018-11-25T04:02:38.900Z,5.40
2018-11-25T04:05:09.212Z,5.30
2018-11-25T04:07:37.784Z,5.40
2018-11-25T04:10:09.416Z,5.50
2018-11-25T04:12:37.946Z,5.50
2018-11-25T04:15:09.459Z,5.50
2018-11-25T04:17:38.052Z,5.50
2018-11-25T04:20:08.827Z,5.60
2018-11-25T04:22:38.149Z,5.60
2018-11-25T04:25:09.220Z,5.70
2018-11-25T04:27:37.821Z,5.60
2018-11-25T04:30:19.807Z,5.60
2018-11-25T04:32:50.354Z,5.70
2018-11-25T04:35:19.195Z,5.60
2018-11-25T04:37:47.936Z,5.50
2018-11-25T04:40:17.459Z,5.50
2018-11-25T04:42:46.082Z,5.50
2018-11-25T04:45:16.619Z,5.40
2018-11-25T04:47:46.113Z,5.50
2018-11-25T04:50:21.018Z,5.40
2018-11-25T04:52:50.007Z,5.40
2018-11-25T04:55:18.627Z,5.40
2018-11-25T04:57:52.688Z,5.40
2018-11-25T05:00:21.768Z,5.40
2018-11-25T05:02:51.357Z,5.40
2018-11-25T05:05:20.615Z,5.40
2018-11-25T05:07:49.342Z,5.30
2018-11-25T05:10:18.931Z,5.30
2018-11-25T05:12:47.544Z,5.20
2018-11-25T05:15:19.258Z,5.10
2018-11-25T05:17:47.907Z,5.10
2018-11-25T05:20:17.047Z,5.10
2018-11-25T05:22:45.592Z,5.20
2018-11-25T05:25:17.441Z,5.20
2018-11-25T05:27:46.034Z,5.10
2018-11-25T05:30:17.522Z,5.10
2018-11-25T05:32:46.441Z,5.30
2018-11-25T05:35:19.217Z,5.40
2018-11-25T05:37:48.003Z,5.30
2018-11-25T05:40:17.131Z,5.20
2018-11-25T05:42:46.065Z,5.10
2018-11-25T05:45:17.941Z,5.00
2018-11-25T05:47:46.727Z,5.00
2018-11-25T05:50:20.083Z,5.10
2018-11-25T05:52:48.673Z,5.20
2018-11-25T05:55:17.251Z,5.30
2018-11-25T05:57:45.896Z,5.30
2018-11-25T06:00:16.757Z,5.20
2018-11-25T06:02:45.325Z,5.10
2018-11-25T06:05:13.929Z,5.20
2018-11-25T06:07:42.522Z,5.20
2018-11-25T06:10:12.580Z,5.10
2018-11-25T06:12:41.365Z,5.00
2018-11-25T06:15:14.914Z,5.10
2018-11-25T06:17:43.602Z,5.10
2018-11-25T06:20:13.470Z,5.00
2018-11-25T06:22:42.256Z,5.00
2018-11-25T06:25:15.356Z,5.00
2018-11-25T06:27:43.947Z,5.10
2018-11-25T06:30:18.856Z,5.10
2018-11-25T06:32:47.477Z,5.10
2018-11-25T06:35:17.253Z,5.00
2018-11-25T06:37:45.987Z,5.10
2018-11-25T06:40:17.794Z,5.00
2018-11-25T06:42:46.516Z,5.00
2018-11-25T06:45:17.155Z,5.00
2018-11-25T06:47:45.889Z,5.00
2018-11-25T06:50:14.541Z,5.00
2018-11-25T06:52:43.104Z,5.00
2018-11-25T06:55:12.837Z,4.90
2018-11-25T06:57:41.403Z,5.00
2018-11-25T07:00:13.713Z,4.90
2018-11-25T07:02:42.416Z,5.00
2018-11-25T07:05:11.325Z,5.00
2018-11-25T07:07:40.042Z,5.00
2018-11-25T07:10:11.975Z,5.10
2018-11-25T07:12:40.596Z,5.10
2018-11-25T07:15:11.863Z,5.10
2018-11-25T07:17:40.593Z,5.10
2018-11-25T07:20:10.834Z,5.10
2018-11-25T07:22:39.424Z,5.20
2018-11-25T07:25:15.282Z,5.10
2018-11-25T07:27:44.070Z,5.10
2018-11-25T07:30:16.209Z,5.00
2018-11-25T07:32:44.916Z,5.00
2018-11-25T07:35:13.516Z,5.00
2018-11-25T07:37:42.255Z,4.90
2018-11-25T07:40:14.164Z,5.00
2018-11-25T07:42:43.085Z,5.00
2018-11-25T07:45:15.114Z,5.00
2018-11-25T07:47:43.699Z,5.10
2018-11-25T07:50:14.259Z,5.00
2018-11-25T07:52:44.093Z,5.00
2018-11-25T07:55:14.778Z,5.00
2018-11-25T07:57:43.792Z,5.00
2018-11-25T08:00:16.778Z,5.10
2018-11-25T08:02:45.628Z,5.00
2018-11-25T08:05:16.596Z,5.00
2018-11-25T08:07:45.143Z,5.00
2018-11-25T08:10:14.997Z,5.10
2018-11-25T08:12:44.158Z,5.00
2018-11-25T08:15:15.082Z,5.00
2018-11-25T08:17:43.868Z,5.00
2018-11-25T08:20:13.669Z,5.00
2018-11-25T08:22:42.518Z,5.10
2018-11-25T08:25:13.962Z,5.10
2018-11-25T08:27:42.609Z,5.20
2018-11-25T08:30:14.368Z,5.10
2018-11-25T08:32:43.136Z,5.10
2018-11-25T08:35:12.676Z,5.00
2018-11-25T08:37:41.588Z,5.00
2018-11-25T08:40:15.370Z,5.00
2018-11-25T08:42:44.135Z,5.10
2018-11-25T08:45:13.764Z,5.00
2018-11-25T08:47:42.643Z,5.10
2018-11-25T08:50:14.554Z,5.00
2018-11-25T08:52:44.062Z,5.00
2018-11-25T08:55:13.901Z,5.00
2018-11-25T08:57:42.626Z,5.10
2018-11-25T09:00:16.437Z,5.20
2018-11-25T09:02:45.467Z,5.20
2018-11-25T09:05:15.253Z,5.10
2018-11-25T09:07:44.199Z,5.10
2018-11-25T09:10:15.013Z,5.10
2018-11-25T09:12:44.490Z,5.20
2018-11-25T09:15:22.588Z,5.20
2018-11-25T09:17:52.256Z,5.10
2018-11-25T09:20:21.833Z,5.00
2018-11-25T09:22:51.498Z,5.00
2018-11-25T09:25:22.694Z,5.00
2018-11-25T09:27:51.439Z,4.90
2018-11-25T09:30:21.521Z,5.00
2018-11-25T09:32:50.272Z,5.10
2018-11-25T09:35:19.081Z,5.00
2018-11-25T09:37:47.723Z,5.10
2018-11-25T09:40:20.480Z,5.00
2018-11-25T09:42:49.499Z,5.10
2018-11-25T09:45:19.303Z,5.20
2018-11-25T09:47:48.584Z,5.30
2018-11-25T09:50:18.278Z,5.30
2018-11-25T09:52:47.465Z,5.30
2018-11-25T09:55:17.144Z,5.30
2018-11-25T09:57:47.331Z,5.20
2018-11-25T10:00:18.357Z,5.10
2018-11-25T10:02:47.024Z,5.20
2018-11-25T10:05:15.790Z,5.20
2018-11-25T10:07:44.420Z,5.20
2018-11-25T10:10:17.191Z,5.20
2018-11-25T10:12:46.112Z,5.20
2018-11-25T10:15:18.455Z,5.30
2018-11-25T10:17:47.403Z,5.30
2018-11-25T10:20:19.439Z,5.40
2018-11-25T10:22:48.163Z,5.40
2018-11-25T10:25:17.366Z,5.40
2018-11-25T10:27:46.360Z,5.40
2018-11-25T10:30:20.007Z,5.40
2018-11-25T10:32:50.279Z,5.50
2018-11-25T10:35:18.919Z,5.50
2018-11-25T10:37:47.782Z,5.40
2018-11-25T10:40:17.694Z,5.40
2018-11-25T10:42:46.517Z,5.40
2018-11-25T10:45:18.141Z,5.40
2018-11-25T10:47:47.142Z,5.50
2018-11-25T10:50:17.106Z,5.60
2018-11-25T10:52:45.982Z,5.60
2018-11-25T10:55:15.699Z,5.50
2018-11-25T10:57:45.309Z,5.50
2018-11-25T11:00:22.905Z,5.40
2018-11-25T11:02:57.192Z,5.50
2018-11-25T11:05:31.258Z,5.50
2018-11-25T11:08:00.241Z,5.50
2018-11-25T11:10:29.091Z,5.50
2018-11-25T11:12:58.866Z,5.50
2018-11-25T11:15:26.641Z,5.50
2018-11-25T11:17:55.565Z,5.60
2018-11-25T11:20:24.223Z,5.60
2018-11-25T11:22:53.228Z,5.60
2018-11-25T11:25:22.165Z,5.70
2018-11-25T11:27:51.059Z,5.80
2018-11-25T11:30:19.906Z,5.90
2018-11-25T11:32:50.130Z,5.90
2018-11-25T11:35:18.921Z,6.00
2018-11-25T11:37:47.959Z,6.00
2018-11-25T11:40:16.882Z,5.90
2018-11-25T11:42:45.679Z,5.90
2018-11-25T11:45:15.509Z,6.10
2018-11-25T11:47:45.075Z,5.90
2018-11-25T11:50:18.383Z,6.00
2018-11-25T11:52:47.496Z,5.90
2018-11-25T11:55:17.425Z,5.90
2018-11-25T11:57:47.117Z,5.90
2018-11-25T12:00:32.161Z,5.90
2018-11-25T12:03:01.439Z,5.80
2018-11-25T12:05:30.719Z,5.80
2018-11-25T12:07:59.975Z,5.80
2018-11-25T12:10:28.990Z,5.80
2018-11-25T12:12:57.923Z,5.80
2018-11-25T12:15:31.110Z,5.80
2018-11-25T12:17:59.205Z,6.00
2018-11-25T12:20:29.394Z,5.90
2018-11-25T12:22:58.812Z,5.90
2018-11-25T12:25:27.935Z,5.90
2018-11-25T12:27:56.680Z,6.00
2018-11-25T12:30:25.417Z,6.00
2018-11-25T12:32:54.159Z,5.90
2018-11-25T12:35:23.094Z,5.90
2018-11-25T12:37:51.843Z,6.00
2018-11-25T12:40:21.962Z,6.10
2018-11-25T12:42:56.001Z,5.90
2018-11-25T12:45:25.398Z,5.90
2018-11-25T12:47:54.417Z,5.90
2018-11-25T12:50:25.192Z,6.00
2018-11-25T12:52:54.415Z,5.90
2018-11-25T12:55:24.656Z,5.90
2018-11-25T12:57:54.270Z,6.00
2018-11-25T13:00:32.814Z,5.90
2018-11-25T13:03:01.890Z,6.10
2018-11-25T13:05:31.122Z,6.20
2018-11-25T13:08:00.105Z,6.30
2018-11-25T13:10:29.776Z,6.30
2018-11-25T13:12:59.168Z,6.40
2018-11-25T13:15:28.060Z,6.40
2018-11-25T13:17:57.247Z,6.40
2018-11-25T13:20:26.414Z,6.40
2018-11-25T13:22:55.834Z,6.40
2018-11-25T13:25:25.040Z,6.50
2018-11-25T13:27:53.911Z,6.50
2018-11-25T13:30:24.685Z,6.40
2018-11-25T13:32:54.963Z,6.50
2018-11-25T13:35:24.633Z,6.40
2018-11-25T13:37:53.615Z,6.40
2018-11-25T13:40:22.703Z,6.50
2018-11-25T13:42:51.868Z,6.50
2018-11-25T13:45:20.769Z,6.50
2018-11-25T13:47:49.707Z,6.60
2018-11-25T13:50:18.422Z,6.50
2018-11-25T13:52:47.300Z,6.40
2018-11-25T13:55:20.430Z,6.30
2018-11-25T13:57:49.275Z,6.30
2018-11-25T14:00:32.129Z,6.30
2018-11-25T14:03:01.723Z,6.30
2018-11-25T14:05:30.500Z,6.20
2018-11-25T14:07:59.297Z,6.10
2018-11-25T14:10:31.416Z,6.10
2018-11-25T14:13:00.370Z,6.00
2018-11-25T14:15:29.768Z,5.90
2018-11-25T14:17:58.215Z,5.90
2018-11-25T14:20:27.302Z,5.90
2018-11-25T14:22:56.470Z,6.00
2018-11-25T14:25:26.049Z,6.00
2018-11-25T14:27:57.073Z,6.00
2018-11-25T14:30:27.405Z,5.90
2018-11-25T14:32:56.166Z,5.90
2018-11-25T14:35:25.046Z,6.00
2018-11-25T14:37:54.437Z,6.00
2018-11-25T14:40:23.191Z,6.00
2018-11-25T14:42:51.965Z,6.00
2018-11-25T14:45:20.793Z,6.00
2018-11-25T14:47:49.640Z,6.00
2018-11-25T14:50:19.934Z,5.90
2018-11-25T14:52:51.208Z,5.90
2018-11-25T14:55:20.325Z,6.00
2018-11-25T14:57:49.532Z,6.00
2018-11-25T15:00:19.753Z,6.10
2018-11-25T15:02:51.110Z,6.00
2018-11-25T15:05:25.985Z,6.00
2018-11-25T15:07:54.903Z,6.00
2018-11-25T15:10:24.149Z,5.90
2018-11-25T15:12:52.977Z,5.90
2018-11-25T15:15:21.644Z,5.90
2018-11-25T15:17:50.508Z,5.90
2018-11-25T15:20:19.506Z,5.80
2018-11-25T15:22:53.237Z,5.70
2018-11-25T15:25:27.296Z,5.70
2018-11-25T15:27:56.123Z,5.70
2018-11-25T15:30:25.128Z,5.70
2018-11-25T15:32:54.041Z,5.70
2018-11-25T15:35:23.098Z,5.70
2018-11-25T15:37:52.883Z,5.70
2018-11-25T15:40:37.399Z,5.80
2018-11-25T15:43:07.779Z,5.90
2018-11-25T15:45:36.753Z,5.90
2018-11-25T15:48:13.988Z,5.90
2018-11-25T15:50:42.850Z,5.90
2018-11-25T15:53:12.096Z,5.80
2018-11-25T15:55:42.056Z,5.70
2018-11-25T15:58:11.430Z,5.80
2018-11-25T16:00:40.545Z,5.80
2018-11-25T16:03:10.610Z,5.80
2018-11-25T16:05:42.569Z,5.80
2018-11-25T16:08:11.633Z,5.80
2018-11-25T16:10:40.459Z,5.80
2018-11-25T16:13:09.908Z,5.80
2018-11-25T16:15:39.067Z,5.80
2018-11-25T16:18:08.406Z,5.80
2018-11-25T16:20:37.545Z,5.80
2018-11-25T16:23:09.015Z,5.70
2018-11-25T16:25:42.532Z,5.70
2018-11-25T16:28:25.257Z,5.60
2018-11-25T16:30:54.415Z,5.50
2018-11-25T16:33:23.269Z,5.50
2018-11-25T16:35:52.605Z,5.50
2018-11-25T16:38:21.580Z,5.40
2018-11-25T16:40:50.370Z,5.40
2018-11-25T16:43:19.019Z,5.40
2018-11-25T16:45:47.981Z,5.40
2018-11-25T16:48:17.091Z,5.50
2018-11-25T16:50:46.190Z,5.40
2018-11-25T16:53:15.227Z,5.40
2018-11-25T16:55:44.131Z,5.40
2018-11-25T16:58:13.399Z,5.50
2018-11-25T17:00:42.347Z,5.50
2018-11-25T17:03:11.468Z,5.50
2018-11-25T17:05:45.576Z,5.50
2018-11-25T17:08:24.240Z,5.50
2018-11-25T17:10:53.601Z,5.60
2018-11-25T17:13:23.230Z,5.60
2018-11-25T17:15:53.408Z,5.60
2018-11-25T17:18:22.376Z,5.70
2018-11-25T17:20:51.937Z,5.60
2018-11-25T17:23:21.299Z,5.70
2018-11-25T17:25:50.517Z,5.70
2018-11-25T17:28:19.613Z,5.70
2018-11-25T17:30:48.665Z,5.70
2018-11-25T17:33:17.933Z,5.70
2018-11-25T17:35:47.287Z,5.60
2018-11-25T17:38:16.622Z,5.60
2018-11-25T17:40:45.874Z,5.70
2018-11-25T17:43:17.564Z,5.70
2018-11-25T17:45:46.866Z,5.70
2018-11-25T17:48:16.474Z,5.80
2018-11-25T17:50:45.645Z,5.80
2018-11-25T17:53:20.696Z,5.80
2018-11-25T17:55:43.568Z,5.80
2018-11-25T17:58:13.092Z,5.80
2018-11-25T18:00:52.437Z,5.90
2018-11-25T18:03:24.848Z,6.00
2018-11-25T18:05:54.056Z,6.00
2018-11-25T18:08:23.383Z,6.00
2018-11-25T18:10:52.946Z,6.10
2018-11-25T18:13:24.323Z,6.10
2018-11-25T18:15:54.857Z,6.10
2018-11-25T18:18:32.657Z,6.10
2018-11-25T18:21:03.558Z,6.00
2018-11-25T18:23:32.890Z,6.00
2018-11-25T18:26:02.176Z,5.90
2018-11-25T18:28:31.523Z,6.00
2018-11-25T18:31:00.900Z,6.00
2018-11-25T18:33:30.396Z,6.00
2018-11-25T18:35:59.935Z,6.10
2018-11-25T18:38:28.920Z,6.10
2018-11-25T18:40:57.934Z,6.10
2018-11-25T18:43:28.011Z,6.10
2018-11-25T18:45:59.367Z,6.10
2018-11-25T18:48:26.998Z,6.10
2018-11-25T18:50:56.353Z,6.20
2018-11-25T18:53:26.028Z,6.20
2018-11-25T18:55:53.761Z,6.20
2018-11-25T18:58:23.351Z,6.30
2018-11-25T19:00:57.695Z,6.20
2018-11-25T19:03:27.421Z,6.20
2018-11-25T19:05:57.425Z,6.20
2018-11-25T19:08:27.171Z,6.20
2018-11-25T19:10:56.314Z,6.20
2018-11-25T19:13:25.693Z,6.20
2018-11-25T19:15:55.654Z,6.20
2018-11-25T19:18:24.971Z,6.20
2018-11-25T19:20:54.145Z,6.20
2018-11-25T19:23:23.443Z,6.20
2018-11-25T19:25:52.639Z,6.20
2018-11-25T19:28:21.439Z,6.20
2018-11-25T19:30:50.676Z,6.10
2018-11-25T19:33:19.892Z,6.10
2018-11-25T19:35:49.550Z,6.00
2018-11-25T19:38:18.723Z,5.90
2018-11-25T19:40:48.147Z,5.90
2018-11-25T19:43:16.988Z,5.80
2018-11-25T19:45:46.269Z,5.80
2018-11-25T19:48:15.492Z,5.80
2018-11-25T19:50:44.966Z,5.70
2018-11-25T19:53:14.200Z,5.80
2018-11-25T19:55:43.673Z,5.80
2018-11-25T19:58:12.750Z,5.80
2018-11-25T20:00:42.139Z,5.80
2018-11-25T20:03:11.272Z,5.80
2018-11-25T20:05:40.616Z,5.90
2018-11-25T20:08:10.162Z,5.90
2018-11-25T20:10:39.548Z,5.90
2018-11-25T20:13:09.860Z,5.90
2018-11-25T20:15:39.383Z,6.00
2018-11-25T20:18:09.571Z,6.00
2018-11-25T20:20:38.628Z,6.10
2018-11-25T20:23:08.128Z,6.00
2018-11-25T20:25:37.270Z,6.00
2018-11-25T20:28:06.215Z,5.90
2018-11-25T20:30:35.546Z,5.90
2018-11-25T20:33:09.738Z,5.90
2018-11-25T20:35:38.683Z,5.90
2018-11-25T20:38:13.050Z,5.80
2018-11-25T20:40:42.402Z,5.70
2018-11-25T20:43:11.210Z,5.80
2018-11-25T20:45:45.334Z,5.80
2018-11-25T20:48:14.789Z,5.90
2018-11-25T20:50:43.675Z,5.90
2018-11-25T20:53:17.841Z,5.90
2018-11-25T20:55:47.087Z,5.90
2018-11-25T20:58:15.978Z,5.90
2018-11-25T21:00:45.057Z,5.90
2018-11-25T21:03:14.287Z,5.90
2018-11-25T21:05:43.435Z,6.00
2018-11-25T21:08:12.566Z,6.00
2018-11-25T21:10:41.563Z,6.00
2018-11-25T21:13:10.617Z,6.00
2018-11-25T21:15:39.775Z,5.90
2018-11-25T21:18:08.951Z,5.90
2018-11-25T21:20:37.722Z,6.00
2018-11-25T21:23:06.939Z,6.00
2018-11-25T21:25:35.874Z,6.00
2018-11-25T21:28:04.639Z,5.90
2018-11-25T21:30:33.513Z,5.90
2018-11-25T21:33:02.448Z,5.90
2018-11-25T21:35:31.382Z,5.80
2018-11-25T21:38:00.508Z,5.70
2018-11-25T21:40:29.343Z,5.60
2018-11-25T21:42:58.145Z,5.50
2018-11-25T21:45:26.962Z,5.40
2018-11-25T21:47:55.766Z,5.40
2018-11-25T21:50:26.041Z,5.40
2018-11-25T21:52:55.073Z,5.30
2018-11-25T21:55:24.347Z,5.40
2018-11-25T21:57:53.143Z,5.30
2018-11-25T22:00:23.178Z,5.20
2018-11-25T22:02:52.239Z,5.10
2018-11-25T22:05:24.992Z,5.30
2018-11-25T22:07:52.877Z,5.30
2018-11-25T22:10:22.717Z,5.30
2018-11-25T22:12:50.950Z,5.30
2018-11-25T22:15:21.075Z,5.30
2018-11-25T22:17:50.245Z,5.30
2018-11-25T22:20:19.104Z,5.40
2018-11-25T22:22:48.162Z,5.40
2018-11-25T22:25:18.546Z,5.50
2018-11-25T22:27:47.641Z,5.60
2018-11-25T22:30:24.794Z,5.60
2018-11-25T22:32:53.794Z,5.60
2018-11-25T22:35:23.628Z,5.60
2018-11-25T22:37:52.446Z,5.70
2018-11-25T22:40:21.502Z,5.70
2018-11-25T22:42:51.045Z,5.80
2018-11-25T22:45:23.771Z,5.80
2018-11-25T22:47:52.355Z,5.80
2018-11-25T22:50:25.507Z,5.60
2018-11-25T22:52:51.315Z,5.50
2018-11-25T22:55:23.540Z,5.40
2018-11-25T22:57:52.404Z,5.30
2018-11-25T23:00:28.227Z,5.30
2018-11-25T23:02:56.975Z,5.30
2018-11-25T23:05:36.881Z,5.40
2018-11-25T23:08:05.874Z,5.40
2018-11-25T23:10:34.527Z,5.40
2018-11-25T23:13:03.222Z,5.40
2018-11-25T23:15:31.953Z,5.30
2018-11-25T23:18:00.592Z,5.40
2018-11-25T23:20:29.227Z,5.50
2018-11-25T23:22:57.786Z,5.60
2018-11-25T23:25:26.882Z,5.50
2018-11-25T23:27:55.469Z,5.60
2018-11-25T23:30:24.436Z,5.70
2018-11-25T23:32:53.171Z,5.70
2018-11-25T23:35:23.480Z,5.60
2018-11-25T23:37:52.308Z,5.60
2018-11-25T23:40:20.899Z,5.70
2018-11-25T23:42:49.552Z,5.80
2018-11-25T23:45:18.321Z,5.90
2018-11-25T23:47:47.520Z,5.90
2018-11-25T23:50:16.206Z,6.00
2018-11-25T23:52:46.924Z,6.10
2018-11-25T23:55:15.928Z,6.10
2018-11-25T23:57:44.509Z,6.10
